createdAt,value
2018-07-26T00:00:46.275Z,24.67
2018-07-26T00:03:15.409Z,27.03
2018-07-26T00:05:44.547Z,27.60
2018-07-26T00:08:13.776Z,24.30
2018-07-26T00:10:43.079Z,29.03
2018-07-26T00:13:12.337Z,22.13
2018-07-26T00:15:41.596Z,24.83
2018-07-26T00:18:10.724Z,30.33
2018-07-26T00:20:39.910Z,26.57
2018-07-26T00:23:09.112Z,24.30
2018-07-26T00:25:38.272Z,22.77
2018-07-26T00:28:07.538Z,25.13
2018-07-26T00:30:36.876Z,27.83
2018-07-26T00:33:06.091Z,26.87
2018-07-26T00:35:35.279Z,22.23
2018-07-26T00:38:04.548Z,23.13
2018-07-26T00:40:33.719Z,25.30
2018-07-26T00:43:02.536Z,24.80
2018-07-26T00:45:31.579Z,27.00
2018-07-26T00:48:00.746Z,28.93
2018-07-26T00:50:29.913Z,28.77
2018-07-26T00:52:59.041Z,23.53
2018-07-26T00:55:28.218Z,20.40
2018-07-26T00:57:57.388Z,19.17
2018-07-26T01:00:26.271Z,22.23
2018-07-26T01:02:55.316Z,20.73
2018-07-26T01:05:24.464Z,19.80
2018-07-26T01:07:53.605Z,18.17
2018-07-26T01:10:22.789Z,19.70
2018-07-26T01:12:52.045Z,16.77
2018-07-26T01:15:21.191Z,17.03
2018-07-26T01:17:50.372Z,19.47
2018-07-26T01:20:19.523Z,19.20
2018-07-26T01:22:48.696Z,21.67
2018-07-26T01:25:17.816Z,20.37
2018-07-26T01:27:47.079Z,19.43
2018-07-26T01:30:16.383Z,23.30
2018-07-26T01:32:45.539Z,22.07
2018-07-26T01:35:14.663Z,19.87
2018-07-26T01:37:43.805Z,23.87
2018-07-26T01:40:13.018Z,20.80
2018-07-26T01:42:53.325Z,20.13
2018-07-26T01:45:22.525Z,20.43
2018-07-26T01:47:51.646Z,20.03
2018-07-26T01:50:20.770Z,25.33
2018-07-26T01:52:49.941Z,23.57
2018-07-26T01:55:19.514Z,20.17
2018-07-26T01:57:48.781Z,22.80
2018-07-26T02:00:18.131Z,27.10
2018-07-26T02:02:47.836Z,25.00
2018-07-26T02:05:16.980Z,26.73
2018-07-26T02:07:46.132Z,23.37
2018-07-26T02:10:15.271Z,24.67
2018-07-26T02:12:44.405Z,24.40
2018-07-26T02:15:13.595Z,24.17
2018-07-26T02:17:42.924Z,21.67
2018-07-26T02:20:12.212Z,27.30
2018-07-26T02:22:41.377Z,26.67
2018-07-26T02:25:10.541Z,28.00
2018-07-26T02:27:39.692Z,28.90
2018-07-26T02:30:08.916Z,27.57
2018-07-26T02:32:38.028Z,26.07
2018-07-26T02:35:07.251Z,24.40
2018-07-26T02:37:36.438Z,24.17
2018-07-26T02:40:06.017Z,24.90
2018-07-26T02:42:35.144Z,28.23
2018-07-26T02:45:04.338Z,24.80
2018-07-26T02:47:33.489Z,23.70
2018-07-26T02:50:02.681Z,28.80
2018-07-26T02:52:31.820Z,28.30
2018-07-26T02:55:01.290Z,28.20
2018-07-26T02:57:30.437Z,29.90
2018-07-26T02:59:59.554Z,31.17
2018-07-26T03:02:28.675Z,29.53
2018-07-26T03:04:57.847Z,27.80
2018-07-26T03:07:27.004Z,30.43
2018-07-26T03:09:56.121Z,30.00
2018-07-26T03:12:25.612Z,35.13
2018-07-26T03:14:54.746Z,35.87
2018-07-26T03:17:23.959Z,33.27
2018-07-26T03:19:53.109Z,31.47
2018-07-26T03:22:22.226Z,27.00
2018-07-26T03:24:51.461Z,27.67
2018-07-26T03:27:20.605Z,30.00
2018-07-26T03:29:49.788Z,30.97
2018-07-26T03:32:18.932Z,29.67
2018-07-26T03:34:48.141Z,26.40
2018-07-26T03:37:17.338Z,36.40
2018-07-26T03:39:46.541Z,26.30
2018-07-26T03:42:15.685Z,28.43
2018-07-26T03:44:44.938Z,31.13
2018-07-26T03:47:14.169Z,31.50
2018-07-26T03:49:44.032Z,29.90
2018-07-26T03:52:14.022Z,28.40
2018-07-26T03:54:43.178Z,27.30
2018-07-26T03:57:12.439Z,25.33
2018-07-26T03:59:41.636Z,25.87
2018-07-26T04:02:10.789Z,23.80
2018-07-26T04:04:39.594Z,26.33
2018-07-26T04:07:08.712Z,30.33
2018-07-26T04:09:37.882Z,25.87
2018-07-26T04:12:07.171Z,31.20
2018-07-26T04:14:36.255Z,30.33
2018-07-26T04:17:05.490Z,27.17
2018-07-26T04:19:34.771Z,29.80
2018-07-26T04:22:03.956Z,29.40
2018-07-26T04:24:33.205Z,27.90
2018-07-26T04:27:02.392Z,30.87
2018-07-26T04:29:31.545Z,32.47
2018-07-26T04:32:00.774Z,31.07
2018-07-26T04:34:29.830Z,28.87
2018-07-26T04:36:58.975Z,28.87
2018-07-26T04:39:28.068Z,29.00
2018-07-26T04:41:57.239Z,27.77
2018-07-26T04:44:26.363Z,27.13
2018-07-26T04:46:55.600Z,29.77
2018-07-26T04:49:24.768Z,28.47
2018-07-26T04:51:53.921Z,26.23
2018-07-26T04:54:23.350Z,28.33
2018-07-26T04:56:52.426Z,26.50
2018-07-26T04:59:21.668Z,30.10
2018-07-26T05:01:50.837Z,24.93
2018-07-26T05:04:20.071Z,25.30
2018-07-26T05:06:49.239Z,28.77
2018-07-26T05:09:18.462Z,19.97
2018-07-26T05:11:47.547Z,27.77
2018-07-26T05:14:16.729Z,26.10
2018-07-26T05:16:45.874Z,24.83
2018-07-26T05:19:15.524Z,21.67
2018-07-26T05:21:44.679Z,23.93
2018-07-26T05:24:13.888Z,22.57
2018-07-26T05:26:43.629Z,20.80
2018-07-26T05:29:12.867Z,23.00
2018-07-26T05:31:42.001Z,19.93
2018-07-26T05:34:11.243Z,22.23
2018-07-26T05:36:40.400Z,24.70
2018-07-26T05:39:11.044Z,18.97
2018-07-26T05:41:40.804Z,19.83
2018-07-26T05:44:10.098Z,15.73
2018-07-26T05:46:39.291Z,16.13
2018-07-26T05:49:08.431Z,17.07
2018-07-26T05:51:37.647Z,15.80
2018-07-26T05:54:06.832Z,19.93
2018-07-26T05:56:36.038Z,21.23
2018-07-26T05:59:05.463Z,17.43
2018-07-26T06:01:34.655Z,16.03
2018-07-26T06:04:03.808Z,16.97
2018-07-26T06:06:32.946Z,16.33
2018-07-26T06:09:02.225Z,16.07
2018-07-26T06:11:31.440Z,18.03
2018-07-26T06:14:00.543Z,18.97
2018-07-26T06:16:29.844Z,18.13
2018-07-26T06:18:58.983Z,16.90
2018-07-26T06:21:28.124Z,17.03
2018-07-26T06:23:57.256Z,18.13
2018-07-26T06:26:26.401Z,17.23
2018-07-26T06:28:56.158Z,18.93
2018-07-26T06:31:25.343Z,17.37
2018-07-26T06:33:54.564Z,18.87
2018-07-26T06:36:24.403Z,17.53
2018-07-26T06:38:53.573Z,16.97
2018-07-26T06:41:22.804Z,16.60
2018-07-26T06:43:51.960Z,16.10
2018-07-26T06:46:21.139Z,18.70
2018-07-26T06:48:50.402Z,17.00
2018-07-26T06:51:19.907Z,16.37
2018-07-26T06:53:49.043Z,15.53
2018-07-26T06:56:18.172Z,15.87
2018-07-26T06:58:47.355Z,15.90
2018-07-26T07:01:17.321Z,15.07
2018-07-26T07:03:46.475Z,15.83
2018-07-26T07:06:15.590Z,15.47
2018-07-26T07:08:44.886Z,15.40
2018-07-26T07:11:14.153Z,14.80
2018-07-26T07:13:43.303Z,13.27
2018-07-26T07:16:12.506Z,12.87
2018-07-26T07:18:41.669Z,12.37
2018-07-26T07:21:11.081Z,13.37
2018-07-26T07:23:39.891Z,11.93
2018-07-26T07:26:08.938Z,11.57
2018-07-26T07:28:38.083Z,12.80
2018-07-26T07:31:07.366Z,12.03
2018-07-26T07:33:36.519Z,12.87
2018-07-26T07:36:05.734Z,12.20
2018-07-26T07:38:34.983Z,14.57
2018-07-26T07:41:04.177Z,14.03
2018-07-26T07:43:33.363Z,9.23
2018-07-26T07:46:02.484Z,9.33
2018-07-26T07:48:31.696Z,12.63
2018-07-26T07:51:00.949Z,8.80
2018-07-26T07:53:30.081Z,9.43
2018-07-26T07:55:59.402Z,7.97
2018-07-26T07:58:28.656Z,10.53
2018-07-26T08:00:57.859Z,9.93
2018-07-26T08:03:26.707Z,7.73
2018-07-26T08:05:55.724Z,6.40
2018-07-26T08:08:24.875Z,6.77
2018-07-26T08:10:54.071Z,7.57
2018-07-26T08:13:23.345Z,10.67
2018-07-26T08:15:52.513Z,9.73
2018-07-26T08:18:21.736Z,6.73
2018-07-26T08:20:50.877Z,9.43
2018-07-26T08:23:20.030Z,6.80
2018-07-26T08:25:49.168Z,6.80
2018-07-26T08:28:18.314Z,6.70
2018-07-26T08:30:48.128Z,10.37
2018-07-26T08:33:17.347Z,7.63
2018-07-26T08:35:46.177Z,10.47
2018-07-26T08:38:15.276Z,8.67
2018-07-26T08:40:44.479Z,11.00
2018-07-26T08:43:13.732Z,8.53
2018-07-26T08:45:42.937Z,12.97
2018-07-26T08:48:12.332Z,8.67
2018-07-26T08:50:41.372Z,12.50
2018-07-26T08:53:10.538Z,8.83
2018-07-26T08:55:39.795Z,13.27
2018-07-26T08:58:09.004Z,7.80
2018-07-26T09:00:38.225Z,7.77
2018-07-26T09:03:07.437Z,10.20
2018-07-26T09:05:36.659Z,9.73
2018-07-26T09:08:05.869Z,10.10
2018-07-26T09:10:35.081Z,8.30
2018-07-26T09:13:04.360Z,8.90
2018-07-26T09:15:33.628Z,9.47
2018-07-26T09:18:02.507Z,8.33
2018-07-26T09:20:31.564Z,8.20
2018-07-26T09:23:00.687Z,7.40
2018-07-26T09:25:29.815Z,7.37
2018-07-26T09:27:58.995Z,7.55
2018-07-26T09:30:27.863Z,7.30
2018-07-26T09:32:56.953Z,9.60
2018-07-26T09:35:26.136Z,10.93
2018-07-26T09:37:55.298Z,9.03
2018-07-26T09:40:24.400Z,9.68
2018-07-26T09:42:53.571Z,9.33
2018-07-26T09:45:22.729Z,7.70
2018-07-26T09:47:51.871Z,8.48
2018-07-26T09:50:21.047Z,7.78
2018-07-26T09:52:50.291Z,10.53
2018-07-26T09:55:19.661Z,8.18
2018-07-26T09:57:49.372Z,6.78
2018-07-26T10:00:23.863Z,6.62
2018-07-26T10:02:52.952Z,6.67
2018-07-26T10:05:22.231Z,9.33
2018-07-26T10:07:51.433Z,7.55
2018-07-26T10:10:20.690Z,8.35
2018-07-26T10:12:49.957Z,10.98
2018-07-26T10:15:19.108Z,6.83
2018-07-26T10:17:48.326Z,11.30
2018-07-26T10:20:17.635Z,7.58
2018-07-26T10:22:46.757Z,7.35
2018-07-26T10:25:15.946Z,8.90
2018-07-26T10:27:45.727Z,8.03
2018-07-26T10:30:14.886Z,7.72
2018-07-26T10:32:44.044Z,9.45
2018-07-26T10:35:13.223Z,8.73
2018-07-26T10:37:42.408Z,7.42
2018-07-26T10:40:12.057Z,8.63
2018-07-26T10:42:41.488Z,6.62
2018-07-26T10:45:10.619Z,8.78
2018-07-26T10:47:39.867Z,9.53
2018-07-26T10:50:10.380Z,10.45
2018-07-26T10:52:39.684Z,8.05
2018-07-26T10:55:09.283Z,6.08
2018-07-26T10:57:39.442Z,6.95
2018-07-26T11:00:09.687Z,6.92
2018-07-26T11:02:39.096Z,6.95
2018-07-26T11:05:09.359Z,5.95
2018-07-26T11:07:39.031Z,8.13
2018-07-26T11:10:09.695Z,7.90
2018-07-26T11:12:38.837Z,5.72
2018-07-26T11:15:34.715Z,6.53
2018-07-26T11:18:04.410Z,4.83
2018-07-26T11:20:33.716Z,5.72
2018-07-26T11:23:02.940Z,6.65
2018-07-26T11:25:31.829Z,9.53
2018-07-26T11:28:00.925Z,5.22
2018-07-26T11:30:30.084Z,7.40
2018-07-26T11:32:59.705Z,6.47
2018-07-26T11:35:28.947Z,5.58
2018-07-26T11:37:58.178Z,7.53
2018-07-26T11:40:27.425Z,7.72
2018-07-26T11:42:56.709Z,4.85
2018-07-26T11:45:25.938Z,4.47
2018-07-26T11:47:55.100Z,5.85
2018-07-26T11:50:24.398Z,7.00
2018-07-26T11:52:53.600Z,4.92
2018-07-26T11:55:22.832Z,6.80
2018-07-26T11:57:52.036Z,6.90
2018-07-26T12:00:21.219Z,4.97
2018-07-26T12:02:50.464Z,6.97
2018-07-26T12:05:19.631Z,5.42
2018-07-26T12:07:48.860Z,5.05
2018-07-26T12:10:18.142Z,5.08
2018-07-26T12:12:47.900Z,5.10
2018-07-26T12:15:17.048Z,7.12
2018-07-26T12:17:46.251Z,6.28
2018-07-26T12:20:15.464Z,5.03
2018-07-26T12:22:44.639Z,4.37
2018-07-26T12:25:13.948Z,10.60
2018-07-26T12:27:42.833Z,6.03
2018-07-26T12:30:12.031Z,4.65
2018-07-26T12:32:41.505Z,6.92
2018-07-26T12:35:11.163Z,4.45
2018-07-26T12:37:40.303Z,5.00
2018-07-26T12:40:09.542Z,6.35
2018-07-26T12:42:38.667Z,4.78
2018-07-26T12:45:07.826Z,5.58
2018-07-26T12:47:37.090Z,5.87
2018-07-26T12:50:06.287Z,5.35
2018-07-26T12:52:35.557Z,6.12
2018-07-26T12:55:04.764Z,5.12
2018-07-26T12:57:33.998Z,5.37
2018-07-26T13:00:04.568Z,3.90
2018-07-26T13:02:33.799Z,4.12
2018-07-26T13:05:02.962Z,5.30
2018-07-26T13:07:32.822Z,9.23
2018-07-26T13:10:02.016Z,6.47
2018-07-26T13:12:30.859Z,4.50
2018-07-26T13:14:59.979Z,4.37
2018-07-26T13:17:29.124Z,7.28
2018-07-26T13:19:58.399Z,5.03
2018-07-26T13:22:27.654Z,6.35
2018-07-26T13:24:56.930Z,4.40
2018-07-26T13:27:26.094Z,5.90
2018-07-26T13:29:55.344Z,5.50
2018-07-26T13:32:24.668Z,4.78
2018-07-26T13:34:53.779Z,4.15
2018-07-26T13:37:22.913Z,7.70
2018-07-26T13:39:52.153Z,5.22
2018-07-26T13:42:21.327Z,3.85
2018-07-26T13:44:50.607Z,6.60
2018-07-26T13:47:20.032Z,5.90
2018-07-26T13:49:49.174Z,3.98
2018-07-26T13:52:18.506Z,4.60
2018-07-26T13:54:47.644Z,4.47
2018-07-26T13:57:16.794Z,4.75
2018-07-26T13:59:45.977Z,4.72
2018-07-26T14:02:15.119Z,6.15
2018-07-26T14:04:44.830Z,5.72
2018-07-26T14:07:14.161Z,5.28
2018-07-26T14:09:43.319Z,4.87
2018-07-26T14:12:13.101Z,4.00
2018-07-26T14:14:42.262Z,4.22
2018-07-26T14:17:11.441Z,4.35
2018-07-26T14:19:40.633Z,4.78
2018-07-26T14:22:10.447Z,6.08
2018-07-26T14:24:39.688Z,4.05
2018-07-26T14:27:09.436Z,4.35
2018-07-26T14:29:38.689Z,4.28
2018-07-26T14:32:07.935Z,6.78
2018-07-26T14:34:37.121Z,5.33
2018-07-26T14:37:06.319Z,6.33
2018-07-26T14:39:35.505Z,4.72
2018-07-26T14:42:04.777Z,9.38
2018-07-26T14:44:33.947Z,4.75
2018-07-26T14:47:03.146Z,4.60
2018-07-26T14:49:32.365Z,4.55
2018-07-26T14:52:01.471Z,5.25
2018-07-26T14:54:30.763Z,6.87
2018-07-26T14:57:00.018Z,5.25
2018-07-26T14:59:29.164Z,7.83
2018-07-26T15:01:58.980Z,5.83
2018-07-26T15:04:28.220Z,6.40
2018-07-26T15:06:57.037Z,4.45
2018-07-26T15:09:26.133Z,5.65
2018-07-26T15:11:55.349Z,5.00
2018-07-26T15:14:24.626Z,4.67
2018-07-26T15:16:53.861Z,8.38
2018-07-26T15:19:23.029Z,4.58
2018-07-26T15:21:52.229Z,5.67
2018-07-26T15:24:21.411Z,4.53
2018-07-26T15:26:50.640Z,5.08
2018-07-26T15:29:20.111Z,5.75
2018-07-26T15:31:49.229Z,5.22
2018-07-26T15:34:18.425Z,9.35
2018-07-26T15:36:47.612Z,4.42
2018-07-26T15:39:16.750Z,4.12
2018-07-26T15:41:47.029Z,4.40
2018-07-26T15:44:16.698Z,6.17
2018-07-26T15:46:45.906Z,5.40
2018-07-26T15:49:15.213Z,5.12
2018-07-26T15:51:44.395Z,4.37
2018-07-26T15:54:13.780Z,4.00
2018-07-26T15:56:42.994Z,3.92
2018-07-26T15:59:12.236Z,5.25
2018-07-26T16:01:41.402Z,7.28
2018-07-26T16:04:10.595Z,4.95
2018-07-26T16:06:39.889Z,4.42
2018-07-26T16:09:10.188Z,4.10
2018-07-26T16:11:39.563Z,4.33
2018-07-26T16:14:09.763Z,3.87
2018-07-26T16:16:39.404Z,6.60
2018-07-26T16:19:08.619Z,4.37
2018-07-26T16:21:37.765Z,4.65
2018-07-26T16:24:07.000Z,6.15
2018-07-26T16:26:36.230Z,4.65
2018-07-26T16:29:05.571Z,4.67
2018-07-26T16:31:34.718Z,4.60
2018-07-26T16:34:03.962Z,4.25
2018-07-26T16:36:33.153Z,4.15
2018-07-26T16:39:02.421Z,5.95
2018-07-26T16:41:31.540Z,3.70
2018-07-26T16:44:00.795Z,7.05
2018-07-26T16:46:30.017Z,5.37
2018-07-26T16:48:59.145Z,4.53
2018-07-26T16:51:28.670Z,4.60
2018-07-26T16:53:58.011Z,6.72
2018-07-26T16:56:27.213Z,5.97
2018-07-26T16:58:56.461Z,5.12
2018-07-26T17:01:26.614Z,5.72
2018-07-26T17:03:55.780Z,9.93
2018-07-26T17:06:24.964Z,4.30
2018-07-26T17:08:54.729Z,3.83
2018-07-26T17:11:23.952Z,4.12
2018-07-26T17:13:53.151Z,5.67
2018-07-26T17:16:22.408Z,5.53
2018-07-26T17:18:51.743Z,5.25
2018-07-26T17:21:20.859Z,8.03
2018-07-26T17:23:50.025Z,4.10
2018-07-26T17:26:19.215Z,6.70
2018-07-26T17:28:48.562Z,5.22
2018-07-26T17:31:17.698Z,6.33
2018-07-26T17:33:46.881Z,4.40
2018-07-26T17:36:16.127Z,3.62
2018-07-26T17:38:45.295Z,5.87
2018-07-26T17:41:14.191Z,4.65
2018-07-26T17:43:43.343Z,4.97
2018-07-26T17:46:12.504Z,4.90
2018-07-26T17:48:41.672Z,4.37
2018-07-26T17:51:10.878Z,5.50
2018-07-26T17:53:39.995Z,5.37
2018-07-26T17:56:09.280Z,4.78
2018-07-26T17:58:38.127Z,3.90
2018-07-26T18:01:07.345Z,5.17
2018-07-26T18:03:36.574Z,3.98
2018-07-26T18:06:06.091Z,6.08
2018-07-26T18:08:35.292Z,3.90
2018-07-26T18:11:04.523Z,6.10
2018-07-26T18:13:33.770Z,7.60
2018-07-26T18:16:03.010Z,4.60
2018-07-26T18:18:32.409Z,5.03
2018-07-26T18:21:01.624Z,9.90
2018-07-26T18:23:31.398Z,4.47
2018-07-26T18:26:00.641Z,4.47
2018-07-26T18:28:29.845Z,5.67
2018-07-26T18:30:59.064Z,6.40
2018-07-26T18:33:28.398Z,4.65
2018-07-26T18:35:57.546Z,5.08
2018-07-26T18:38:26.709Z,6.58
2018-07-26T18:40:55.942Z,5.85
2018-07-26T18:43:26.201Z,16.40
2018-07-26T18:45:55.301Z,5.37
2018-07-26T18:48:24.133Z,4.20
2018-07-26T18:50:53.248Z,4.40
2018-07-26T18:53:22.450Z,7.58
2018-07-26T18:55:51.549Z,4.85
2018-07-26T18:58:20.759Z,5.58
2018-07-26T19:00:50.013Z,4.30
2018-07-26T19:03:19.193Z,8.83
2018-07-26T19:05:48.360Z,4.72
2018-07-26T19:08:17.524Z,11.30
2018-07-26T19:10:46.736Z,7.53
2018-07-26T19:13:15.887Z,4.72
2018-07-26T19:15:45.006Z,6.45
2018-07-26T19:18:14.281Z,6.80
2018-07-26T19:20:43.398Z,4.15
2018-07-26T19:23:12.665Z,4.20
2018-07-26T19:25:41.848Z,5.93
2018-07-26T19:28:11.071Z,5.83
2018-07-26T19:30:40.348Z,10.07
2018-07-26T19:33:09.564Z,9.13
2018-07-26T19:35:38.734Z,6.83
2018-07-26T19:38:07.914Z,9.60
2018-07-26T19:40:37.118Z,11.30
2018-07-26T19:43:06.548Z,5.23
2018-07-26T19:45:35.716Z,5.60
2018-07-26T19:48:04.940Z,7.63
2018-07-26T19:50:34.081Z,4.93
2018-07-26T19:53:03.613Z,9.93
2018-07-26T19:55:32.729Z,6.63
2018-07-26T19:58:01.919Z,5.83
2018-07-26T20:00:31.063Z,5.93
2018-07-26T20:03:00.269Z,5.57
2018-07-26T20:05:29.399Z,7.37
2018-07-26T20:07:58.657Z,6.17
2018-07-26T20:10:28.468Z,6.87
2018-07-26T20:12:57.767Z,7.13
2018-07-26T20:15:26.905Z,4.73
2018-07-26T20:17:56.715Z,4.53
2018-07-26T20:20:25.923Z,6.20
2018-07-26T20:22:55.037Z,7.70
2018-07-26T20:25:24.294Z,10.73
2018-07-26T20:27:53.567Z,6.13
2018-07-26T20:30:22.656Z,7.03
2018-07-26T20:32:51.877Z,7.77
2018-07-26T20:35:21.046Z,6.07
2018-07-26T20:37:51.427Z,6.97
2018-07-26T20:40:20.579Z,5.57
2018-07-26T20:42:49.720Z,6.20
2018-07-26T20:45:18.885Z,5.80
2018-07-26T20:47:48.072Z,12.53
2018-07-26T20:50:17.271Z,10.10
2018-07-26T20:52:46.495Z,8.37
2018-07-26T20:55:15.769Z,6.67
2018-07-26T20:57:44.944Z,9.03
2018-07-26T21:00:14.493Z,11.40
2018-07-26T21:02:44.034Z,8.77
2018-07-26T21:05:13.277Z,8.23
2018-07-26T21:07:42.512Z,7.93
2018-07-26T21:10:11.677Z,9.57
2018-07-26T21:12:41.368Z,8.30
2018-07-26T21:15:10.705Z,7.87
2018-07-26T21:17:39.785Z,6.00
2018-07-26T21:20:08.999Z,7.70
2018-07-26T21:22:37.858Z,6.77
2018-07-26T21:25:06.904Z,7.47
2018-07-26T21:27:36.040Z,8.07
2018-07-26T21:30:06.924Z,11.07
2018-07-26T21:32:36.249Z,8.90
2018-07-26T21:35:06.431Z,6.33
2018-07-26T21:37:35.588Z,7.67
2018-07-26T21:40:05.867Z,6.70
2018-07-26T21:42:35.080Z,8.70
2018-07-26T21:45:04.623Z,8.53
2018-07-26T21:47:33.759Z,6.83
2018-07-26T21:50:02.964Z,10.80
2018-07-26T21:52:32.103Z,7.40
2018-07-26T21:55:01.369Z,9.93
2018-07-26T21:57:30.502Z,10.80
2018-07-26T21:59:59.680Z,7.20
2018-07-26T22:02:28.910Z,7.20
2018-07-26T22:04:58.024Z,9.60
2018-07-26T22:07:27.500Z,8.67
2018-07-26T22:09:56.740Z,8.73
2018-07-26T22:12:25.953Z,8.10
2018-07-26T22:14:55.242Z,7.03
2018-07-26T22:17:24.399Z,6.90
2018-07-26T22:19:53.504Z,8.47
2018-07-26T22:22:22.694Z,7.47
2018-07-26T22:24:51.851Z,8.00
2018-07-26T22:27:21.036Z,10.50
2018-07-26T22:29:50.178Z,8.40
2018-07-26T22:32:19.359Z,8.43
2018-07-26T22:34:48.449Z,10.60
2018-07-26T22:37:17.752Z,7.83
2018-07-26T22:39:46.933Z,7.43
2018-07-26T22:42:16.069Z,7.40
2018-07-26T22:44:45.200Z,10.13
2018-07-26T22:47:14.424Z,8.97
2018-07-26T22:49:43.579Z,8.13
2018-07-26T22:52:12.733Z,9.47
2018-07-26T22:54:41.876Z,8.30
2018-07-26T22:57:11.012Z,11.33
2018-07-26T22:59:40.146Z,8.00
2018-07-26T23:02:09.301Z,9.80
2018-07-26T23:04:38.474Z,7.83
2018-07-26T23:07:07.852Z,8.17
2018-07-26T23:09:37.060Z,7.57
2018-07-26T23:12:06.353Z,7.93
2018-07-26T23:14:35.546Z,8.90
2018-07-26T23:17:04.806Z,8.37
2018-07-26T23:19:33.989Z,10.87
2018-07-26T23:22:03.251Z,9.17
2018-07-26T23:24:32.355Z,9.87
2018-07-26T23:27:01.544Z,8.93
2018-07-26T23:29:30.694Z,12.77
2018-07-26T23:31:59.868Z,10.13
2018-07-26T23:34:29.078Z,12.17
2018-07-26T23:36:58.210Z,9.37
2018-07-26T23:39:27.435Z,9.27
2018-07-26T23:41:56.724Z,10.17
2018-07-26T23:44:25.835Z,9.30
2018-07-26T23:46:55.021Z,10.23
2018-07-26T23:49:24.094Z,9.00
2018-07-26T23:51:53.264Z,8.37
2018-07-26T23:54:22.467Z,9.33
2018-07-26T23:56:51.589Z,9.60
2018-07-26T23:59:20.754Z,12.17
